createdAt,value
2018-07-24T00:02:53.332Z,70.48
2018-07-24T00:08:58.962Z,69.17
2018-07-24T00:15:05.776Z,70.14
2018-07-24T00:21:11.560Z,71.19
2018-07-24T00:27:17.132Z,70.87
2018-07-24T00:33:22.767Z,72.07
2018-07-24T00:39:28.320Z,71.10
2018-07-24T00:45:34.102Z,72.63
2018-07-24T00:51:39.670Z,72.06
2018-07-24T00:57:45.255Z,73.27
2018-07-24T01:03:50.824Z,72.18
2018-07-24T01:09:56.457Z,73.28
2018-07-24T01:16:02.046Z,73.71
2018-07-24T01:22:07.647Z,73.97
2018-07-24T01:28:13.220Z,73.92
2018-07-24T01:34:18.824Z,74.17
2018-07-24T01:40:24.419Z,74.24
2018-07-24T01:46:30.035Z,74.61
2018-07-24T01:52:35.690Z,75.38
2018-07-24T01:58:41.248Z,75.31
2018-07-24T02:04:47.004Z,75.98
2018-07-24T02:10:52.605Z,75.76
2018-07-24T02:16:58.212Z,76.71
2018-07-24T02:23:03.854Z,76.28
2018-07-24T02:29:09.438Z,77.92
2018-07-24T02:35:15.176Z,78.47
2018-07-24T02:41:20.829Z,78.01
2018-07-24T02:47:26.444Z,77.48
2018-07-24T02:53:32.047Z,78.50
2018-07-24T02:59:37.653Z,79.32
2018-07-24T03:05:43.260Z,78.90
2018-07-24T03:11:48.820Z,78.66
2018-07-24T03:17:54.399Z,78.28
2018-07-24T03:24:00.012Z,78.87
2018-07-24T03:30:06.159Z,78.75
2018-07-24T03:36:11.798Z,80.04
2018-07-24T03:42:17.410Z,79.60
2018-07-24T03:48:22.958Z,79.06
2018-07-24T03:54:28.983Z,79.23
2018-07-24T04:00:34.584Z,79.65
2018-07-24T04:06:40.149Z,79.92
2018-07-24T04:12:45.923Z,79.41
2018-07-24T04:18:51.491Z,79.28
2018-07-24T04:24:57.074Z,79.41
2018-07-24T04:31:02.746Z,79.42
2018-07-24T04:37:08.261Z,78.29
2018-07-24T04:43:13.821Z,79.07
2018-07-24T04:49:19.396Z,77.90
2018-07-24T04:55:25.016Z,77.42
2018-07-24T05:01:30.597Z,77.66
2018-07-24T05:07:36.181Z,78.42
2018-07-24T05:13:41.743Z,77.34
2018-07-24T05:19:47.315Z,76.71
2018-07-24T05:25:52.915Z,75.70
2018-07-24T05:31:58.529Z,76.47
2018-07-24T05:38:04.170Z,75.63
2018-07-24T05:44:09.937Z,75.28
2018-07-24T05:50:15.594Z,73.36
2018-07-24T05:56:21.216Z,73.63
2018-07-24T06:02:26.854Z,74.40
2018-07-24T06:08:32.478Z,73.59
2018-07-24T06:14:38.041Z,72.57
2018-07-24T06:20:43.648Z,72.07
2018-07-24T06:26:49.366Z,70.57
2018-07-24T06:32:54.938Z,66.24
2018-07-24T06:39:00.502Z,61.49
2018-07-24T06:45:06.484Z,59.57
2018-07-24T06:51:12.111Z,60.88
2018-07-24T06:57:17.681Z,57.04
2018-07-24T07:03:23.415Z,56.55
2018-07-24T07:09:28.970Z,55.33
2018-07-24T07:15:34.583Z,54.03
2018-07-24T07:21:40.178Z,52.32
2018-07-24T07:27:45.772Z,53.37
2018-07-24T07:33:51.378Z,48.26
2018-07-24T07:39:56.962Z,48.62
2018-07-24T07:46:02.716Z,46.16
2018-07-24T07:52:08.316Z,45.90
2018-07-24T07:58:13.913Z,43.10
2018-07-24T08:04:19.273Z,42.42
2018-07-24T08:10:24.789Z,42.10
2018-07-24T08:16:30.511Z,41.28
2018-07-24T08:22:36.660Z,41.34
2018-07-24T08:28:42.331Z,41.28
2018-07-24T08:34:47.976Z,41.13
2018-07-24T08:40:54.072Z,41.65
2018-07-24T08:46:59.669Z,41.46
2018-07-24T08:53:05.515Z,41.32
2018-07-24T08:59:10.989Z,40.46
2018-07-24T09:05:16.881Z,38.67
2018-07-24T09:11:22.853Z,38.19
2018-07-24T09:17:28.837Z,36.35
2018-07-24T09:23:34.809Z,35.82
2018-07-24T09:29:40.708Z,34.68
2018-07-24T09:35:46.653Z,33.71
2018-07-24T09:41:52.560Z,32.43
2018-07-24T09:47:58.468Z,31.28
2018-07-24T09:54:04.467Z,31.50
2018-07-24T10:00:10.372Z,34.46
2018-07-24T10:06:16.055Z,31.09
2018-07-24T10:12:21.785Z,31.11
2018-07-24T10:18:27.730Z,30.80
2018-07-24T10:24:33.848Z,32.39
2018-07-24T10:30:39.658Z,30.01
2018-07-24T10:36:45.622Z,30.61
2018-07-24T10:42:51.553Z,30.99
2018-07-24T10:48:57.535Z,29.77
2018-07-24T10:55:03.578Z,30.56
2018-07-24T11:01:09.575Z,30.21
2018-07-24T11:07:15.539Z,28.35
2018-07-24T11:13:21.438Z,28.02
2018-07-24T11:19:28.120Z,26.90
2018-07-24T11:25:34.140Z,27.39
2018-07-24T11:31:40.098Z,27.16
2018-07-24T11:37:45.973Z,26.86
2018-07-24T11:43:51.785Z,26.16
2018-07-24T11:49:57.748Z,25.99
2018-07-24T11:56:03.640Z,24.80
2018-07-24T12:02:09.345Z,24.16
2018-07-24T12:08:15.011Z,23.55
2018-07-24T12:14:20.614Z,22.65
2018-07-24T12:20:26.538Z,22.09
2018-07-24T12:26:32.447Z,24.42
2018-07-24T12:32:38.377Z,25.79
2018-07-24T12:38:44.307Z,25.25
2018-07-24T12:44:50.292Z,22.65
2018-07-24T12:50:56.324Z,21.02
2018-07-24T12:57:02.325Z,21.07
2018-07-24T13:03:08.275Z,21.47
2018-07-24T13:09:14.200Z,23.43
2018-07-24T13:15:20.116Z,23.22
2018-07-24T13:21:25.675Z,23.61
2018-07-24T13:27:31.501Z,22.57
2018-07-24T13:33:37.598Z,22.11
2018-07-24T13:39:43.612Z,22.17
2018-07-24T13:45:49.567Z,21.73
2018-07-24T13:51:55.272Z,19.96
2018-07-24T13:58:01.029Z,19.96
2018-07-24T14:04:07.117Z,20.60
2018-07-24T14:10:13.061Z,20.93
2018-07-24T14:16:18.576Z,20.51
2018-07-24T14:22:24.557Z,21.28
2018-07-24T14:28:30.505Z,20.58
2018-07-24T14:34:36.446Z,19.64
2018-07-24T14:40:42.341Z,18.28
2018-07-24T14:46:48.127Z,17.49
2018-07-24T14:52:53.753Z,18.93
2018-07-24T14:58:59.390Z,20.90
2018-07-24T15:05:05.048Z,21.65
2018-07-24T15:11:10.730Z,22.79
2018-07-24T15:17:16.668Z,21.52
2018-07-24T15:23:22.634Z,19.78
2018-07-24T15:29:28.600Z,19.59
2018-07-24T15:35:34.545Z,18.20
2018-07-24T15:41:40.497Z,18.76
2018-07-24T15:47:46.487Z,16.67
2018-07-24T15:53:52.380Z,17.32
2018-07-24T15:59:58.321Z,18.33
2018-07-24T16:06:04.131Z,17.88
2018-07-24T16:12:10.526Z,18.63
2018-07-24T16:18:16.220Z,19.23
2018-07-24T16:24:21.917Z,18.91
2018-07-24T16:30:27.594Z,18.87
2018-07-24T16:36:33.245Z,18.50
2018-07-24T16:42:39.042Z,19.76
2018-07-24T16:48:44.845Z,18.08
2018-07-24T16:54:51.127Z,19.25
2018-07-24T17:00:56.951Z,18.98
2018-07-24T17:07:02.700Z,19.54
2018-07-24T17:13:08.352Z,20.06
2018-07-24T17:19:13.997Z,20.40
2018-07-24T17:25:19.608Z,19.21
2018-07-24T17:31:25.296Z,19.55
2018-07-24T17:37:31.555Z,19.69
2018-07-24T17:43:37.202Z,19.41
2018-07-24T17:49:42.801Z,19.29
2018-07-24T17:55:49.283Z,19.62
2018-07-24T18:01:54.933Z,21.04
2018-07-24T18:08:00.964Z,20.82
2018-07-24T18:14:06.978Z,21.66
2018-07-24T18:20:13.004Z,20.87
2018-07-24T18:26:19.004Z,21.87
2018-07-24T18:32:25.067Z,22.74
2018-07-24T18:38:31.108Z,22.96
2018-07-24T18:44:37.121Z,24.68
2018-07-24T18:50:43.129Z,27.17
2018-07-24T18:56:49.055Z,29.74
2018-07-24T19:02:55.058Z,33.28
2018-07-24T19:09:01.032Z,35.61
2018-07-24T19:15:07.629Z,36.72
2018-07-24T19:21:13.384Z,38.52
2018-07-24T19:27:19.368Z,40.24
2018-07-24T19:33:25.271Z,40.91
2018-07-24T19:39:30.776Z,41.35
2018-07-24T19:45:36.288Z,41.51
2018-07-24T19:51:41.855Z,42.49
2018-07-24T19:57:47.465Z,43.16
2018-07-24T20:03:53.025Z,44.55
2018-07-24T20:09:58.619Z,44.56
2018-07-24T20:16:04.742Z,44.64
2018-07-24T20:22:10.489Z,44.29
2018-07-24T20:28:16.085Z,45.30
2018-07-24T20:34:21.904Z,46.06
2018-07-24T20:40:27.509Z,45.36
2018-07-24T20:46:33.094Z,43.53
2018-07-24T20:52:38.671Z,43.82
2018-07-24T20:58:44.253Z,43.71
2018-07-24T21:04:49.808Z,43.80
2018-07-24T21:10:56.360Z,43.60
2018-07-24T21:17:01.927Z,44.81
2018-07-24T21:23:07.644Z,44.43
2018-07-24T21:29:13.236Z,45.23
2018-07-24T21:35:18.751Z,46.50
2018-07-24T21:41:24.362Z,49.58
2018-07-24T21:47:29.930Z,50.19
2018-07-24T21:53:35.878Z,51.13
2018-07-24T21:59:41.460Z,51.72
2018-07-24T22:05:47.022Z,52.04
2018-07-24T22:11:52.582Z,51.15
2018-07-24T22:17:58.328Z,52.91
2018-07-24T22:24:03.975Z,52.06
2018-07-24T22:30:10.112Z,52.43
2018-07-24T22:36:15.563Z,51.09
2018-07-24T22:42:20.984Z,52.58
2018-07-24T22:48:26.483Z,54.25
2018-07-24T22:54:31.668Z,53.84
2018-07-24T23:00:36.986Z,54.40
2018-07-24T23:06:42.430Z,52.73
2018-07-24T23:12:47.881Z,51.25
2018-07-24T23:18:53.310Z,51.97
2018-07-24T23:24:58.746Z,51.44
2018-07-24T23:31:04.255Z,51.87
2018-07-24T23:37:09.710Z,51.97
2018-07-24T23:43:15.158Z,52.47
2018-07-24T23:49:20.613Z,52.89
2018-07-24T23:55:26.065Z,55.53
